createdAt,value
2022-12-03T00:01:21.262Z,61.33
2022-12-03T00:03:49.849Z,60.28
2022-12-03T00:06:18.355Z,57.92
2022-12-03T00:08:47.990Z,59.55
2022-12-03T00:11:16.357Z,57.40
2022-12-03T00:13:45.538Z,56.30
2022-12-03T00:16:13.864Z,54.17
2022-12-03T00:18:42.564Z,56.33
2022-12-03T00:21:10.825Z,56.00
2022-12-03T00:23:42.243Z,56.45
2022-12-03T00:26:12.414Z,55.15
2022-12-03T00:28:40.746Z,55.03
2022-12-03T00:31:09.080Z,53.22
2022-12-03T00:33:37.505Z,54.65
2022-12-03T00:36:06.426Z,55.58
2022-12-03T00:38:34.707Z,53.03
2022-12-03T00:41:03.127Z,55.00
2022-12-03T00:43:32.911Z,50.80
2022-12-03T00:46:01.480Z,53.97
2022-12-03T00:48:33.268Z,51.33
2022-12-03T00:51:05.476Z,53.03
2022-12-03T00:53:34.267Z,51.78
2022-12-03T00:56:02.714Z,54.75
2022-12-03T00:58:32.291Z,52.38
2022-12-03T01:01:00.693Z,51.90
2022-12-03T01:03:28.947Z,51.03
2022-12-03T01:05:57.363Z,53.58
2022-12-03T01:08:26.064Z,45.67
2022-12-03T01:10:54.475Z,48.17
2022-12-03T01:13:22.748Z,51.65
2022-12-03T01:15:52.872Z,48.50
2022-12-03T01:18:21.059Z,48.17
2022-12-03T01:20:49.304Z,46.92
2022-12-03T01:23:18.020Z,49.85
2022-12-03T01:25:46.203Z,48.80
2022-12-03T01:28:14.417Z,50.13
2022-12-03T01:30:56.993Z,49.58
2022-12-03T01:33:26.647Z,51.80
2022-12-03T01:35:55.200Z,49.67
2022-12-03T01:38:24.057Z,48.30
2022-12-03T01:40:54.775Z,51.45
2022-12-03T01:43:23.092Z,47.35
2022-12-03T01:45:51.896Z,48.50
2022-12-03T01:48:20.169Z,49.25
2022-12-03T01:50:49.905Z,51.70
2022-12-03T01:53:20.099Z,48.53
2022-12-03T01:55:49.076Z,46.50
2022-12-03T01:58:18.457Z,46.67
2022-12-03T02:00:46.919Z,49.88
2022-12-03T02:03:20.945Z,48.05
2022-12-03T02:05:50.761Z,48.08
2022-12-03T02:08:29.712Z,45.53
2022-12-03T02:10:59.432Z,47.22
2022-12-03T02:13:27.787Z,46.40
2022-12-03T02:15:56.277Z,47.10
2022-12-03T02:18:24.946Z,46.53
2022-12-03T02:21:04.277Z,45.80
2022-12-03T02:23:39.209Z,45.22
2022-12-03T02:26:09.120Z,44.90
2022-12-03T02:28:38.205Z,45.40
2022-12-03T02:31:07.261Z,45.70
2022-12-03T02:33:35.645Z,44.63
2022-12-03T02:36:04.351Z,42.53
2022-12-03T02:38:35.484Z,46.10
2022-12-03T02:41:07.360Z,43.50
2022-12-03T02:43:38.238Z,43.72
2022-12-03T02:46:08.993Z,43.97
2022-12-03T02:48:39.666Z,42.40
2022-12-03T02:51:11.020Z,43.63
2022-12-03T02:53:42.844Z,43.97
2022-12-03T02:56:15.057Z,47.17
2022-12-03T02:58:47.451Z,46.72
2022-12-03T03:01:17.197Z,44.67
2022-12-03T03:03:49.141Z,44.28
2022-12-03T03:06:19.135Z,48.25
2022-12-03T03:08:47.422Z,45.38
2022-12-03T03:11:16.017Z,47.97
2022-12-03T03:13:45.975Z,44.78
2022-12-03T03:16:14.308Z,46.90
2022-12-03T03:18:42.908Z,46.42
2022-12-03T03:21:11.254Z,43.63
2022-12-03T03:23:39.510Z,45.15
2022-12-03T03:26:09.967Z,48.25
2022-12-03T03:28:42.802Z,44.60
2022-12-03T03:31:16.232Z,43.75
2022-12-03T03:33:47.252Z,44.33
2022-12-03T03:36:16.354Z,45.92
2022-12-03T03:38:45.386Z,45.03
2022-12-03T03:41:15.600Z,45.85
2022-12-03T03:43:45.421Z,47.00
2022-12-03T03:46:16.285Z,44.90
2022-12-03T03:48:46.008Z,45.72
2022-12-03T03:51:14.635Z,47.05
2022-12-03T03:53:45.762Z,46.28
2022-12-03T03:56:14.569Z,46.97
2022-12-03T03:58:43.157Z,46.15
2022-12-03T04:01:15.335Z,46.88
2022-12-03T04:03:43.989Z,45.28
2022-12-03T04:06:12.311Z,47.70
2022-12-03T04:08:40.748Z,49.33
2022-12-03T04:11:26.465Z,45.55
2022-12-03T04:13:55.173Z,45.05
2022-12-03T04:16:24.999Z,45.35
2022-12-03T04:18:53.165Z,47.38
2022-12-03T04:21:41.045Z,45.40
2022-12-03T04:24:11.249Z,47.00
2022-12-03T04:26:57.368Z,44.38
2022-12-03T04:29:25.995Z,48.35
2022-12-03T04:32:13.467Z,43.45
2022-12-03T04:34:59.181Z,45.08
2022-12-03T04:37:27.544Z,45.33
2022-12-03T04:39:56.044Z,44.60
2022-12-03T04:42:24.499Z,47.13
2022-12-03T04:44:53.124Z,45.40
2022-12-03T04:47:23.769Z,44.75
2022-12-03T04:49:52.934Z,44.80
2022-12-03T04:52:22.035Z,44.70
2022-12-03T04:54:50.325Z,45.47
2022-12-03T04:57:18.876Z,45.67
2022-12-03T04:59:47.172Z,44.28
2022-12-03T05:02:15.406Z,43.97
2022-12-03T05:04:45.177Z,41.75
2022-12-03T05:07:13.647Z,41.33
2022-12-03T05:09:41.820Z,41.20
2022-12-03T05:12:10.378Z,42.53
2022-12-03T05:14:38.691Z,43.17
2022-12-03T05:17:06.978Z,43.03
2022-12-03T05:19:49.365Z,44.58
2022-12-03T05:22:18.959Z,42.17
2022-12-03T05:24:47.361Z,46.90
2022-12-03T05:27:21.737Z,45.80
2022-12-03T05:29:52.571Z,44.72
2022-12-03T05:32:21.133Z,46.88
2022-12-03T05:34:49.222Z,48.25
2022-12-03T05:37:19.250Z,46.00
2022-12-03T05:39:47.700Z,45.00
2022-12-03T05:42:33.093Z,44.30
2022-12-03T05:45:02.057Z,46.33
2022-12-03T05:47:30.278Z,45.00
2022-12-03T05:49:58.702Z,46.30
2022-12-03T05:52:28.876Z,44.65
2022-12-03T05:54:57.647Z,47.45
2022-12-03T05:57:26.187Z,44.97
2022-12-03T05:59:55.019Z,46.08
2022-12-03T06:02:23.352Z,48.08
2022-12-03T06:04:51.928Z,46.40
2022-12-03T06:07:20.803Z,47.47
2022-12-03T06:09:50.297Z,47.28
2022-12-03T06:12:18.475Z,52.33
2022-12-03T06:14:46.955Z,46.78
2022-12-03T06:17:15.547Z,47.40
2022-12-03T06:19:43.708Z,48.17
2022-12-03T06:22:12.064Z,44.28
2022-12-03T06:24:40.447Z,45.00
2022-12-03T06:27:10.055Z,47.15
2022-12-03T06:29:38.467Z,50.30
2022-12-03T06:32:07.567Z,49.10
2022-12-03T06:34:35.785Z,47.05
2022-12-03T06:37:04.287Z,47.47
2022-12-03T06:39:33.693Z,51.53
2022-12-03T06:42:01.920Z,53.45
2022-12-03T06:44:31.963Z,48.35
2022-12-03T06:47:00.439Z,48.97
2022-12-03T06:49:28.704Z,50.10
2022-12-03T06:51:57.560Z,52.30
2022-12-03T06:54:26.299Z,51.65
2022-12-03T06:56:55.076Z,49.17
2022-12-03T06:59:23.319Z,50.08
2022-12-03T07:01:53.227Z,53.13
2022-12-03T07:04:21.479Z,50.05
2022-12-03T07:06:50.062Z,53.65
2022-12-03T07:09:18.608Z,53.05
2022-12-03T07:11:46.833Z,52.53
2022-12-03T07:14:16.432Z,51.72
2022-12-03T07:16:45.192Z,58.60
2022-12-03T07:19:15.675Z,55.47
2022-12-03T07:21:43.986Z,56.88
2022-12-03T07:24:12.439Z,56.40
2022-12-03T07:26:40.652Z,55.53
2022-12-03T07:29:08.933Z,58.95
2022-12-03T07:31:37.234Z,56.50
2022-12-03T07:34:05.509Z,60.65
2022-12-03T07:36:35.483Z,64.22
2022-12-03T07:39:04.351Z,58.30
2022-12-03T07:41:32.739Z,60.70
2022-12-03T07:44:01.161Z,56.75
2022-12-03T07:46:29.643Z,53.53
2022-12-03T07:48:57.934Z,59.35
2022-12-03T07:51:31.991Z,60.42
2022-12-03T07:54:02.280Z,61.22
2022-12-03T07:56:30.577Z,56.80
2022-12-03T07:58:58.807Z,57.13
2022-12-03T08:01:27.382Z,57.38
2022-12-03T08:03:55.860Z,59.80
2022-12-03T08:06:24.125Z,59.00
2022-12-03T08:08:52.426Z,57.70
2022-12-03T08:11:37.339Z,56.72
2022-12-03T08:14:13.522Z,58.25
2022-12-03T08:16:43.532Z,59.53
2022-12-03T08:19:13.425Z,56.90
2022-12-03T08:21:43.827Z,59.78
2022-12-03T08:24:16.003Z,59.47
2022-12-03T08:26:47.496Z,54.20
2022-12-03T08:29:17.654Z,54.33
2022-12-03T08:31:52.072Z,59.25
2022-12-03T08:34:25.259Z,57.40
2022-12-03T08:36:58.605Z,56.63
2022-12-03T08:39:34.549Z,57.95
2022-12-03T08:42:30.634Z,60.40
2022-12-03T08:45:02.045Z,55.42
2022-12-03T08:47:31.027Z,58.22
2022-12-03T08:50:03.180Z,61.45
2022-12-03T08:52:33.329Z,54.22
2022-12-03T08:55:11.993Z,59.13
2022-12-03T08:57:43.881Z,60.88
2022-12-03T09:00:19.940Z,54.17
2022-12-03T09:02:51.827Z,58.78
2022-12-03T09:05:22.340Z,56.75
2022-12-03T09:07:50.639Z,60.75
2022-12-03T09:10:18.973Z,54.75
2022-12-03T09:12:49.065Z,58.40
2022-12-03T09:15:17.859Z,59.30
2022-12-03T09:17:46.107Z,55.38
2022-12-03T09:20:15.732Z,54.28
2022-12-03T09:22:43.992Z,53.45
2022-12-03T09:25:12.432Z,54.78
2022-12-03T09:27:41.348Z,58.53
2022-12-03T09:30:11.887Z,52.47
2022-12-03T09:32:40.234Z,57.25
2022-12-03T09:35:09.606Z,56.05
2022-12-03T09:37:37.722Z,57.67
2022-12-03T09:40:07.397Z,60.10
2022-12-03T09:42:36.199Z,57.47
2022-12-03T09:45:10.877Z,55.17
2022-12-03T09:47:43.558Z,60.53
2022-12-03T09:50:14.552Z,56.10
2022-12-03T09:52:45.306Z,57.72
2022-12-03T09:55:17.899Z,58.65
2022-12-03T09:57:46.837Z,57.55
2022-12-03T10:00:18.877Z,58.88
2022-12-03T10:02:51.082Z,60.50
2022-12-03T10:05:21.307Z,60.92
2022-12-03T10:07:50.395Z,61.42
2022-12-03T10:10:20.830Z,60.67
2022-12-03T10:12:49.677Z,57.20
2022-12-03T10:15:20.924Z,59.72
2022-12-03T10:17:53.022Z,56.72
2022-12-03T10:20:23.716Z,61.35
2022-12-03T10:22:51.930Z,65.70
2022-12-03T10:25:22.901Z,60.40
2022-12-03T10:27:59.116Z,58.85
2022-12-03T10:30:28.877Z,60.05
2022-12-03T10:33:02.700Z,64.68
2022-12-03T10:35:39.507Z,62.97
2022-12-03T10:38:09.318Z,62.42
2022-12-03T10:40:39.333Z,60.45
2022-12-03T10:43:26.275Z,61.13
2022-12-03T10:46:14.210Z,56.88
2022-12-03T10:48:44.285Z,61.70
2022-12-03T10:51:20.913Z,59.72
2022-12-03T10:53:51.541Z,57.97
2022-12-03T10:56:27.465Z,59.88
2022-12-03T10:58:56.694Z,58.97
2022-12-03T11:01:27.001Z,55.97
2022-12-03T11:04:02.385Z,58.28
2022-12-03T11:06:33.422Z,52.67
2022-12-03T11:09:08.741Z,52.88
2022-12-03T11:11:37.459Z,55.70
2022-12-03T11:14:06.524Z,54.90
2022-12-03T11:17:07.235Z,52.72
2022-12-03T11:20:01.004Z,56.30
2022-12-03T11:22:45.051Z,52.05
2022-12-03T11:25:37.452Z,52.78
2022-12-03T11:28:35.006Z,55.95
2022-12-03T11:31:09.596Z,51.13
2022-12-03T11:33:39.332Z,56.05
2022-12-03T11:36:15.500Z,54.65
2022-12-03T11:38:57.843Z,52.28
2022-12-03T11:41:29.875Z,53.17
2022-12-03T11:44:04.931Z,53.95
2022-12-03T11:46:43.891Z,53.60
2022-12-03T11:49:36.376Z,52.80
2022-12-03T11:52:22.369Z,55.35
2022-12-03T11:54:53.272Z,52.85
2022-12-03T11:57:28.772Z,56.30
2022-12-03T12:00:14.453Z,53.97
2022-12-03T12:02:43.377Z,57.75
2022-12-03T12:05:20.387Z,53.90
2022-12-03T12:07:50.550Z,56.42
2022-12-03T12:10:44.397Z,59.00
2022-12-03T12:13:52.638Z,58.20
2022-12-03T12:16:42.534Z,58.78
2022-12-03T12:19:34.862Z,62.38
2022-12-03T12:22:18.647Z,59.85
2022-12-03T12:24:52.565Z,59.65
2022-12-03T12:27:22.867Z,63.75
2022-12-03T12:29:56.554Z,63.72
2022-12-03T12:32:27.675Z,59.38
2022-12-03T12:35:00.667Z,60.85
2022-12-03T12:37:34.778Z,61.95
2022-12-03T12:40:15.333Z,59.28
2022-12-03T12:42:50.123Z,59.42
2022-12-03T12:45:21.595Z,57.17
2022-12-03T12:47:54.559Z,55.35
2022-12-03T12:50:23.334Z,56.38
2022-12-03T12:52:54.315Z,60.90
2022-12-03T12:55:25.249Z,58.10
2022-12-03T12:57:53.445Z,53.35
2022-12-03T13:00:24.405Z,55.13
2022-12-03T13:02:57.372Z,55.03
2022-12-03T13:05:27.839Z,54.00
2022-12-03T13:07:57.227Z,57.45
2022-12-03T13:10:40.183Z,55.53
2022-12-03T13:13:18.920Z,55.08
2022-12-03T13:15:51.828Z,57.70
2022-12-03T13:18:30.491Z,57.95
2022-12-03T13:20:58.801Z,56.70
2022-12-03T13:23:35.378Z,59.90
2022-12-03T13:26:32.818Z,60.03
2022-12-03T13:29:15.122Z,55.63
2022-12-03T13:31:48.002Z,59.38
2022-12-03T13:34:24.619Z,55.22
2022-12-03T13:36:57.957Z,56.83
2022-12-03T13:39:32.139Z,54.08
2022-12-03T13:42:31.919Z,57.60
2022-12-03T13:45:01.759Z,59.78
2022-12-03T13:47:30.296Z,54.53
2022-12-03T13:50:03.981Z,57.33
2022-12-03T13:55:05.151Z,56.30
2022-12-03T13:57:34.849Z,59.35
2022-12-03T14:00:03.446Z,57.50
2022-12-03T14:02:32.133Z,55.97
2022-12-03T14:05:00.931Z,55.72
2022-12-03T14:07:29.490Z,55.90
2022-12-03T14:09:58.113Z,54.75
2022-12-03T14:12:33.742Z,54.80
2022-12-03T14:15:04.604Z,56.88
2022-12-03T14:17:32.975Z,55.85
2022-12-03T14:20:01.951Z,54.53
2022-12-03T14:22:30.927Z,58.33
2022-12-03T14:24:59.426Z,56.70
2022-12-03T14:27:28.406Z,55.20
2022-12-03T14:29:57.167Z,52.67
2022-12-03T14:32:27.173Z,54.35
2022-12-03T14:34:55.427Z,54.17
2022-12-03T14:37:23.808Z,57.30
2022-12-03T14:39:52.409Z,55.97
2022-12-03T14:42:21.280Z,56.60
2022-12-03T14:44:51.187Z,54.92
2022-12-03T14:47:22.526Z,55.67
2022-12-03T14:49:53.436Z,59.15
2022-12-03T14:52:21.946Z,58.67
2022-12-03T14:54:50.175Z,55.15
2022-12-03T14:57:19.039Z,53.78
2022-12-03T14:59:47.968Z,55.63
2022-12-03T15:02:16.279Z,58.83
2022-12-03T15:04:44.777Z,60.13
2022-12-03T15:07:14.424Z,64.32
2022-12-03T15:09:42.578Z,60.22
2022-12-03T15:12:11.136Z,58.78
2022-12-03T15:14:39.262Z,57.92
2022-12-03T15:17:07.529Z,57.38
2022-12-03T15:19:36.009Z,59.00
2022-12-03T15:22:04.250Z,55.55
2022-12-03T15:24:33.926Z,59.25
2022-12-03T15:27:02.481Z,55.72
2022-12-03T15:29:30.744Z,52.15
2022-12-03T15:32:01.058Z,51.42
2022-12-03T15:34:29.509Z,55.55
2022-12-03T15:36:58.121Z,47.03
2022-12-03T15:39:26.736Z,51.10
2022-12-03T15:41:56.590Z,49.65
2022-12-03T15:44:24.767Z,50.35
2022-12-03T15:46:53.008Z,47.90
2022-12-03T15:49:21.334Z,53.15
2022-12-03T15:51:49.546Z,49.00
2022-12-03T15:54:17.659Z,50.72
2022-12-03T15:56:46.050Z,49.53
2022-12-03T15:59:15.556Z,51.15
2022-12-03T16:01:43.958Z,48.72
2022-12-03T16:04:12.459Z,49.70
2022-12-03T16:06:40.799Z,53.47
2022-12-03T16:09:08.975Z,49.45
2022-12-03T16:11:37.492Z,50.30
2022-12-03T16:14:05.730Z,49.83
2022-12-03T16:16:35.536Z,51.42
2022-12-03T16:19:04.467Z,51.28
2022-12-03T16:21:34.682Z,49.72
2022-12-03T16:24:02.893Z,53.13
2022-12-03T16:26:31.415Z,55.70
2022-12-03T16:28:59.607Z,54.05
2022-12-03T16:31:28.340Z,55.42
2022-12-03T16:33:58.647Z,55.97
2022-12-03T16:36:27.029Z,53.38
2022-12-03T16:38:55.201Z,59.53
2022-12-03T16:41:23.811Z,55.28
2022-12-03T16:43:52.075Z,57.58
2022-12-03T16:46:26.481Z,58.83
2022-12-03T16:48:56.427Z,58.33
2022-12-03T16:51:27.056Z,56.38
2022-12-03T16:53:55.961Z,57.30
2022-12-03T16:56:24.311Z,57.33
2022-12-03T16:58:52.597Z,61.35
2022-12-03T17:01:20.763Z,61.53
2022-12-03T17:03:49.175Z,58.13
2022-12-03T17:06:17.482Z,64.22
2022-12-03T17:08:49.635Z,58.80
2022-12-03T17:11:18.631Z,60.88
2022-12-03T17:13:46.832Z,64.70
2022-12-03T17:16:15.075Z,65.07
2022-12-03T17:18:44.060Z,66.00
2022-12-03T17:21:12.239Z,64.78
2022-12-03T17:23:40.464Z,62.05
2022-12-03T17:26:10.341Z,60.55
2022-12-03T17:28:38.522Z,61.85
2022-12-03T17:31:07.028Z,65.25
2022-12-03T17:33:35.725Z,59.13
2022-12-03T17:36:03.930Z,66.05
2022-12-03T17:38:38.646Z,64.15
2022-12-03T17:41:09.110Z,62.38
2022-12-03T17:43:37.248Z,64.63
2022-12-03T17:46:06.770Z,65.20
2022-12-03T17:48:35.965Z,65.65
2022-12-03T17:51:04.152Z,62.40
2022-12-03T17:53:32.332Z,62.55
2022-12-03T17:56:00.432Z,61.45
2022-12-03T17:58:30.627Z,61.47
2022-12-03T18:01:02.718Z,62.03
2022-12-03T18:03:31.785Z,61.05
2022-12-03T18:06:00.118Z,64.20
2022-12-03T18:08:28.544Z,63.08
2022-12-03T18:10:56.966Z,64.78
2022-12-03T18:13:25.398Z,61.60
2022-12-03T18:15:55.517Z,60.60
2022-12-03T18:18:24.094Z,61.03
2022-12-03T18:20:53.719Z,66.95
2022-12-03T18:23:22.088Z,63.10
2022-12-03T18:25:50.561Z,65.18
2022-12-03T18:28:18.861Z,66.80
2022-12-03T18:30:52.275Z,60.85
2022-12-03T18:33:23.954Z,63.80
2022-12-03T18:35:55.405Z,65.65
2022-12-03T18:38:26.396Z,63.35
2022-12-03T18:40:56.655Z,68.22
2022-12-03T18:43:27.176Z,68.47
2022-12-03T18:45:55.716Z,67.28
2022-12-03T18:48:26.641Z,67.60
2022-12-03T18:50:55.326Z,67.82
2022-12-03T18:53:23.551Z,70.68
2022-12-03T18:55:51.946Z,71.47
2022-12-03T18:58:20.494Z,71.22
2022-12-03T19:00:48.684Z,73.22
2022-12-03T19:03:17.037Z,70.53
2022-12-03T19:05:46.958Z,73.40
2022-12-03T19:08:15.426Z,69.65
2022-12-03T19:10:44.372Z,68.18
2022-12-03T19:13:13.180Z,69.72
2022-12-03T19:15:41.425Z,67.53
2022-12-03T19:18:09.622Z,71.10
2022-12-03T19:20:41.416Z,76.10
2022-12-03T19:23:11.193Z,76.40
2022-12-03T19:25:39.361Z,73.00
2022-12-03T19:28:07.725Z,68.20
2022-12-03T19:30:36.091Z,69.97
2022-12-03T19:33:04.301Z,70.18
2022-12-03T19:35:32.876Z,70.93
2022-12-03T19:38:01.135Z,70.35
2022-12-03T19:40:32.201Z,75.40
2022-12-03T19:43:00.586Z,70.15
2022-12-03T19:45:28.887Z,71.18
2022-12-03T19:47:57.138Z,73.65
2022-12-03T19:50:25.497Z,75.68
2022-12-03T19:52:53.806Z,74.28
2022-12-03T19:55:21.959Z,72.43
2022-12-03T19:57:51.589Z,71.30
2022-12-03T20:00:20.243Z,77.22
2022-12-03T20:02:50.366Z,71.55
2022-12-03T20:05:19.020Z,73.25
2022-12-03T20:07:47.444Z,74.80
2022-12-03T20:10:15.673Z,75.20
2022-12-03T20:12:44.294Z,72.53
2022-12-03T20:15:14.910Z,77.40
2022-12-03T20:17:43.208Z,73.18
2022-12-03T20:20:12.407Z,78.85
2022-12-03T20:22:41.053Z,75.10
2022-12-03T20:25:10.066Z,79.25
2022-12-03T20:27:39.336Z,81.97
2022-12-03T20:30:08.647Z,76.07
2022-12-03T20:32:42.113Z,83.30
2022-12-03T20:35:13.741Z,73.40
2022-12-03T20:37:41.979Z,83.38
2022-12-03T20:40:11.048Z,75.97
2022-12-03T20:42:39.250Z,79.55
2022-12-03T20:45:08.952Z,82.32
2022-12-03T20:47:38.578Z,81.30
2022-12-03T20:50:08.154Z,78.93
2022-12-03T20:52:36.696Z,84.15
2022-12-03T20:55:05.355Z,82.00
2022-12-03T20:57:33.631Z,82.68
2022-12-03T21:00:02.179Z,72.78
2022-12-03T21:02:30.547Z,78.57
2022-12-03T21:05:00.333Z,76.95
2022-12-03T21:07:29.107Z,79.18
2022-12-03T21:09:57.578Z,74.43
2022-12-03T21:12:26.078Z,77.28
2022-12-03T21:14:54.579Z,77.10
2022-12-03T21:17:22.962Z,76.57
2022-12-03T21:19:51.189Z,77.55
2022-12-03T21:22:20.800Z,80.18
2022-12-03T21:24:49.008Z,75.63
2022-12-03T21:27:21.561Z,71.53
2022-12-03T21:29:50.970Z,72.88
2022-12-03T21:32:19.306Z,68.13
2022-12-03T21:34:47.471Z,67.82
2022-12-03T21:37:16.121Z,70.50
2022-12-03T21:39:45.712Z,71.13
2022-12-03T21:42:33.649Z,68.63
2022-12-03T21:45:02.464Z,74.78
2022-12-03T21:47:36.697Z,71.00
2022-12-03T21:50:07.100Z,71.30
2022-12-03T21:52:35.347Z,70.82
2022-12-03T21:55:05.151Z,68.40
2022-12-03T21:57:37.240Z,70.22
2022-12-03T22:00:07.753Z,73.13
2022-12-03T22:02:36.364Z,69.43
2022-12-03T22:05:04.925Z,71.55
2022-12-03T22:07:34.368Z,69.20
2022-12-03T22:10:05.010Z,74.03
2022-12-03T22:12:33.534Z,76.35
2022-12-03T22:15:01.966Z,72.13
2022-12-03T22:17:30.653Z,77.03
2022-12-03T22:19:59.266Z,69.65
2022-12-03T22:22:27.665Z,72.35
2022-12-03T22:24:55.954Z,74.05
2022-12-03T22:27:26.176Z,74.75
2022-12-03T22:29:54.437Z,72.68
2022-12-03T22:32:23.803Z,67.85
2022-12-03T22:34:52.112Z,67.80
2022-12-03T22:37:20.295Z,71.53
2022-12-03T22:39:48.997Z,73.60
2022-12-03T22:42:17.515Z,71.95
2022-12-03T22:44:47.020Z,78.93
2022-12-03T22:47:15.256Z,75.88
2022-12-03T22:49:43.451Z,74.43
2022-12-03T22:52:11.689Z,73.10
2022-12-03T22:54:40.404Z,72.07
2022-12-03T22:57:09.114Z,75.32
2022-12-03T22:59:37.243Z,73.82
2022-12-03T23:02:06.836Z,76.15
2022-12-03T23:04:35.196Z,77.05
2022-12-03T23:07:03.403Z,74.53
2022-12-03T23:09:31.682Z,76.18
2022-12-03T23:11:59.914Z,77.53
2022-12-03T23:14:28.054Z,75.57
2022-12-03T23:16:56.206Z,74.97
2022-12-03T23:19:26.075Z,74.55
2022-12-03T23:21:54.213Z,69.70
2022-12-03T23:24:22.282Z,78.80
2022-12-03T23:26:50.831Z,73.18
2022-12-03T23:29:18.943Z,80.90
2022-12-03T23:31:47.182Z,73.80
2022-12-03T23:34:15.748Z,77.18
2022-12-03T23:36:45.448Z,75.03
2022-12-03T23:39:13.570Z,74.05
2022-12-03T23:41:42.026Z,72.45
2022-12-03T23:44:10.134Z,76.88
2022-12-03T23:46:40.933Z,75.88
2022-12-03T23:49:09.329Z,75.50
2022-12-03T23:51:37.560Z,70.07
2022-12-03T23:54:07.365Z,79.00
2022-12-03T23:56:35.915Z,76.85
2022-12-03T23:59:03.986Z,71.20
